Bemidji, Minnesota
Current Conditions -  °F | °C
As of 7:13 PM on Tuesday 25 Nov 2014 (Local Time) from KBJI Reporting Station
Overcast Overcast  
Wind Chill: 11°   Ceiling: 2300
Heat Index: 18°   Visibility: 10mi
Dew Point: 11°   Wind: 5mph
Humidity: 76%   Direction: 80°E
Pressure: 29.95"   Gusts: NA
Location:  47.47°N, 94.88°W
Report Text: KBJI 260113Z AUTO 08004KT 10SM OVC023 M08/M12 A2995 RMK AO2 T10801116
Loading
Personal Weather Stations






























Interactive Weather Map New forecast layout! Learn more

10-Day Weather Forecast

Advertisements
Track Severe Weather on mobile